createdAt,value
2023-04-26T00:00:09.888Z,1.33
2023-04-26T00:02:38.052Z,1.67
2023-04-26T00:05:07.739Z,1.50
2023-04-26T00:07:37.928Z,1.60
2023-04-26T00:10:06.403Z,1.33
2023-04-26T00:12:34.571Z,1.47
2023-04-26T00:15:04.273Z,1.53
2023-04-26T00:17:32.852Z,1.40
2023-04-26T00:20:03.577Z,1.60
2023-04-26T00:22:31.445Z,1.83
2023-04-26T00:24:59.804Z,1.80
2023-04-26T00:27:29.749Z,1.50
2023-04-26T00:29:57.665Z,1.53
2023-04-26T00:32:26.914Z,1.47
2023-04-26T00:34:54.844Z,1.63
2023-04-26T00:37:23.362Z,1.60
2023-04-26T00:39:51.270Z,1.47
2023-04-26T00:42:19.624Z,1.80
2023-04-26T00:44:47.804Z,1.63
2023-04-26T00:47:16.209Z,1.40
2023-04-26T00:49:45.778Z,1.60
2023-04-26T00:52:14.137Z,1.70
2023-04-26T00:54:42.743Z,1.67
2023-04-26T00:57:11.444Z,1.63
2023-04-26T00:59:39.380Z,2.00
2023-04-26T01:02:07.437Z,1.90
2023-04-26T01:04:37.197Z,1.73
2023-04-26T01:07:06.540Z,1.63
2023-04-26T01:09:34.526Z,1.77
2023-04-26T01:12:02.772Z,1.70
2023-04-26T01:14:31.319Z,1.50
2023-04-26T01:16:59.721Z,2.30
2023-04-26T01:19:27.588Z,2.00
2023-04-26T01:21:55.413Z,1.63
2023-04-26T01:24:24.605Z,1.60
2023-04-26T01:26:52.452Z,2.13
2023-04-26T01:29:21.724Z,1.87
2023-04-26T01:31:50.355Z,1.60
2023-04-26T01:34:18.212Z,2.27
2023-04-26T01:36:46.158Z,1.87
2023-04-26T01:39:14.120Z,2.03
2023-04-26T01:41:43.289Z,2.10
2023-04-26T01:44:11.321Z,1.63
2023-04-26T01:46:39.368Z,2.23
2023-04-26T01:49:07.430Z,2.17
2023-04-26T01:51:36.261Z,2.70
2023-04-26T01:54:04.300Z,1.83
2023-04-26T01:56:33.605Z,1.67
2023-04-26T01:59:02.955Z,2.53
2023-04-26T02:01:31.289Z,1.97
2023-04-26T02:03:59.338Z,1.87
2023-04-26T02:06:27.925Z,1.43
2023-04-26T02:08:55.930Z,1.93
2023-04-26T02:11:24.566Z,1.97
2023-04-26T02:13:52.761Z,2.00
2023-04-26T02:16:22.316Z,1.50
2023-04-26T02:18:50.913Z,1.77
2023-04-26T02:21:19.202Z,1.83
2023-04-26T02:23:47.074Z,1.90
2023-04-26T02:26:15.269Z,2.00
2023-04-26T02:28:43.099Z,1.90
2023-04-26T02:31:11.155Z,1.40
2023-04-26T02:33:40.866Z,1.63
2023-04-26T02:36:09.510Z,1.97
2023-04-26T02:38:37.964Z,1.93
2023-04-26T02:41:06.383Z,1.90
2023-04-26T02:43:34.400Z,1.50
2023-04-26T02:46:02.310Z,1.70
2023-04-26T02:48:30.193Z,1.63
2023-04-26T02:50:59.432Z,2.00
2023-04-26T02:53:27.325Z,1.70
2023-04-26T02:55:55.281Z,1.50
2023-04-26T02:58:23.326Z,1.70
2023-04-26T03:00:51.386Z,1.60
2023-04-26T03:03:19.368Z,2.20
2023-04-26T03:05:47.609Z,2.80
2023-04-26T03:08:17.081Z,2.23
2023-04-26T03:10:46.291Z,1.90
2023-04-26T03:13:15.053Z,2.37
2023-04-26T03:15:45.845Z,2.10
2023-04-26T03:18:13.729Z,1.97
2023-04-26T03:20:43.198Z,1.90
2023-04-26T03:23:11.129Z,1.90
2023-04-26T03:25:40.629Z,1.97
2023-04-26T03:28:08.512Z,2.33
2023-04-26T03:30:36.441Z,1.97
2023-04-26T03:33:04.644Z,1.80
2023-04-26T03:35:32.459Z,2.00
2023-04-26T03:38:00.327Z,2.17
2023-04-26T03:40:28.284Z,2.40
2023-04-26T03:42:57.632Z,2.40
2023-04-26T03:45:26.705Z,1.97
2023-04-26T03:47:54.720Z,2.47
2023-04-26T03:50:22.759Z,2.23
2023-04-26T03:52:51.266Z,2.30
2023-04-26T03:55:19.209Z,1.80
2023-04-26T03:57:47.381Z,2.10
2023-04-26T04:00:17.090Z,2.40
2023-04-26T04:02:45.682Z,2.10
2023-04-26T04:05:13.858Z,2.37
2023-04-26T04:07:41.933Z,2.27
2023-04-26T04:10:11.082Z,1.97
2023-04-26T04:12:38.896Z,2.33
2023-04-26T04:15:08.258Z,1.97
2023-04-26T04:17:38.814Z,2.60
2023-04-26T04:20:08.818Z,2.60
2023-04-26T04:22:36.664Z,2.50
2023-04-26T04:25:05.961Z,2.83
2023-04-26T04:27:33.895Z,3.13
2023-04-26T04:30:04.210Z,2.43
2023-04-26T04:32:33.106Z,2.77
2023-04-26T04:35:02.669Z,2.53
2023-04-26T04:37:33.088Z,2.63
2023-04-26T04:40:01.217Z,3.57
2023-04-26T04:42:29.159Z,2.40
2023-04-26T04:44:59.656Z,2.50
2023-04-26T04:47:27.910Z,2.73
2023-04-26T04:49:56.385Z,2.97
2023-04-26T04:52:25.877Z,2.90
2023-04-26T04:54:54.021Z,3.03
2023-04-26T04:57:21.886Z,3.60
2023-04-26T04:59:49.738Z,3.47
2023-04-26T05:02:17.908Z,3.50
2023-04-26T05:04:46.154Z,3.60
2023-04-26T05:07:15.569Z,3.83
2023-04-26T05:09:46.343Z,3.97
2023-04-26T05:12:14.248Z,3.63
2023-04-26T05:14:42.135Z,3.47
2023-04-26T05:17:10.035Z,3.70
2023-04-26T05:19:38.100Z,4.53
2023-04-26T05:22:06.279Z,4.33
2023-04-26T05:24:35.555Z,4.17
2023-04-26T05:27:05.307Z,4.60
2023-04-26T05:29:33.274Z,4.07
2023-04-26T05:32:01.211Z,4.27
2023-04-26T05:34:29.042Z,4.10
2023-04-26T05:36:57.019Z,4.53
2023-04-26T05:39:25.215Z,4.93
2023-04-26T05:41:53.164Z,4.30
2023-04-26T05:44:22.596Z,4.20
2023-04-26T05:46:50.567Z,4.60
2023-04-26T05:49:19.268Z,4.53
2023-04-26T05:51:47.228Z,4.97
2023-04-26T05:54:15.165Z,5.27
2023-04-26T05:56:43.115Z,5.37
2023-04-26T05:59:12.189Z,4.87
2023-04-26T06:01:41.343Z,4.97
2023-04-26T06:04:11.860Z,5.20
2023-04-26T06:06:40.467Z,5.27
2023-04-26T06:09:08.618Z,4.97
2023-04-26T06:11:36.558Z,4.87
2023-04-26T06:14:04.725Z,4.70
2023-04-26T06:16:32.737Z,5.10
2023-04-26T06:19:02.012Z,6.00
2023-04-26T06:21:29.964Z,4.93
2023-04-26T06:23:58.133Z,5.23
2023-04-26T06:26:26.048Z,4.73
2023-04-26T06:28:53.934Z,4.73
2023-04-26T06:31:22.872Z,5.07
2023-04-26T06:33:50.950Z,5.20
2023-04-26T06:36:20.392Z,5.33
2023-04-26T06:38:48.792Z,4.87
2023-04-26T06:41:16.744Z,5.43
2023-04-26T06:43:44.659Z,5.03
2023-04-26T06:46:12.787Z,5.30
2023-04-26T06:48:40.773Z,4.87
2023-04-26T06:51:08.942Z,4.87
2023-04-26T06:53:38.580Z,4.73
2023-04-26T06:56:06.984Z,4.70
2023-04-26T06:58:34.899Z,4.30
2023-04-26T07:01:03.560Z,4.37
2023-04-26T07:03:32.516Z,4.53
2023-04-26T07:06:01.724Z,4.23
2023-04-26T07:08:29.610Z,4.17
2023-04-26T07:10:58.851Z,3.73
2023-04-26T07:13:26.902Z,4.10
2023-04-26T07:15:57.445Z,4.60
2023-04-26T07:18:25.342Z,3.90
2023-04-26T07:20:53.242Z,4.63
2023-04-26T07:23:21.316Z,4.20
2023-04-26T07:25:49.172Z,4.83
2023-04-26T07:28:18.427Z,4.27
2023-04-26T07:30:46.348Z,4.23
2023-04-26T07:33:14.307Z,3.80
2023-04-26T07:35:43.893Z,3.93
2023-04-26T07:38:14.463Z,3.70
2023-04-26T07:40:43.256Z,3.83
2023-04-26T07:43:11.410Z,4.40
2023-04-26T07:45:41.682Z,4.40
2023-04-26T07:48:09.936Z,3.80
2023-04-26T07:50:38.164Z,3.87
2023-04-26T07:53:06.245Z,3.43
2023-04-26T07:55:34.127Z,3.80
2023-04-26T07:58:02.423Z,3.70
2023-04-26T08:00:30.493Z,3.47
2023-04-26T08:02:59.974Z,3.20
2023-04-26T08:05:28.715Z,3.20
2023-04-26T08:07:56.701Z,3.50
2023-04-26T08:10:24.808Z,3.47
2023-04-26T08:12:52.697Z,3.40
2023-04-26T08:15:20.629Z,3.23
2023-04-26T08:17:48.610Z,2.60
2023-04-26T08:20:18.095Z,2.70
2023-04-26T08:22:46.223Z,2.53
2023-04-26T08:25:14.126Z,2.60
2023-04-26T08:27:42.276Z,2.43
2023-04-26T08:30:10.989Z,2.17
2023-04-26T08:32:38.897Z,1.97
2023-04-26T08:35:07.624Z,2.10
2023-04-26T08:37:37.884Z,2.10
2023-04-26T08:40:09.350Z,2.23
2023-04-26T08:42:41.618Z,2.93
2023-04-26T08:45:11.431Z,2.47
2023-04-26T08:47:45.753Z,2.17
2023-04-26T08:50:15.339Z,2.47
2023-04-26T08:52:45.498Z,3.00
2023-04-26T08:55:14.541Z,2.90
2023-04-26T08:57:44.561Z,3.10
2023-04-26T09:00:15.831Z,2.37
2023-04-26T09:02:47.769Z,3.00
2023-04-26T09:05:17.152Z,2.87
2023-04-26T09:07:47.931Z,2.97
2023-04-26T09:10:21.013Z,2.60
2023-04-26T09:12:51.800Z,2.53
2023-04-26T09:15:21.373Z,3.00
2023-04-26T09:17:49.724Z,3.33
2023-04-26T09:20:31.261Z,3.00
2023-04-26T09:23:08.093Z,3.60
2023-04-26T09:25:37.065Z,2.47
2023-04-26T09:28:19.587Z,2.60
2023-04-26T09:30:47.789Z,2.80
2023-04-26T09:33:16.271Z,2.53
2023-04-26T09:35:45.354Z,1.93
2023-04-26T09:38:16.276Z,1.87
2023-04-26T09:40:45.584Z,2.73
2023-04-26T09:43:15.502Z,3.03
2023-04-26T09:45:50.948Z,2.10
2023-04-26T09:48:22.344Z,2.20
2023-04-26T09:50:53.347Z,2.37
2023-04-26T09:53:30.965Z,2.20
2023-04-26T09:56:07.280Z,2.33
2023-04-26T09:58:35.349Z,2.43
2023-04-26T10:01:05.239Z,2.23
2023-04-26T10:03:35.617Z,1.90
2023-04-26T10:06:03.837Z,2.50
2023-04-26T10:08:34.082Z,1.83
2023-04-26T10:11:04.350Z,1.60
2023-04-26T10:13:33.326Z,1.73
2023-04-26T10:16:02.072Z,2.30
2023-04-26T10:18:30.460Z,2.10
2023-04-26T10:21:03.240Z,1.73
2023-04-26T10:23:31.513Z,1.93
2023-04-26T10:26:00.948Z,1.80
2023-04-26T10:29:01.982Z,1.90
2023-04-26T10:32:05.144Z,1.90
2023-04-26T10:34:34.855Z,2.30
2023-04-26T10:37:13.865Z,2.53
2023-04-26T10:39:42.895Z,2.20
2023-04-26T10:42:27.714Z,1.90
2023-04-26T10:44:57.498Z,2.10
2023-04-26T10:47:34.721Z,1.97
2023-04-26T10:50:09.053Z,1.53
2023-04-26T10:52:37.952Z,2.03
2023-04-26T10:55:07.739Z,2.00
2023-04-26T10:57:51.120Z,1.90
2023-04-26T11:00:27.858Z,1.67
2023-04-26T11:03:08.873Z,2.20
2023-04-26T11:05:56.496Z,1.73
2023-04-26T11:08:30.284Z,2.10
2023-04-26T11:11:05.987Z,2.00
2023-04-26T11:13:37.523Z,2.40
2023-04-26T11:16:07.075Z,2.30
2023-04-26T11:18:36.537Z,2.13
2023-04-26T11:21:06.288Z,2.50
2023-04-26T11:23:35.370Z,2.40
2023-04-26T11:26:08.438Z,2.30
2023-04-26T11:28:39.698Z,2.50
2023-04-26T11:31:08.546Z,2.50
2023-04-26T11:33:36.518Z,2.10
2023-04-26T11:36:05.122Z,2.70
2023-04-26T11:38:33.072Z,2.30
2023-04-26T11:41:03.706Z,2.30
2023-04-26T11:43:35.625Z,2.10
2023-04-26T11:46:05.839Z,2.50
2023-04-26T11:48:35.955Z,2.23
2023-04-26T11:51:05.118Z,2.57
2023-04-26T11:53:37.777Z,1.70
2023-04-26T11:56:06.902Z,2.23
2023-04-26T11:58:34.887Z,2.13
2023-04-26T12:01:04.284Z,1.93
2023-04-26T12:03:33.436Z,2.13
2023-04-26T12:06:02.212Z,2.00
2023-04-26T12:08:30.392Z,2.10
2023-04-26T12:11:02.096Z,2.03
2023-04-26T12:13:30.724Z,2.17
2023-04-26T12:15:58.726Z,1.80
2023-04-26T12:18:33.397Z,1.80
2023-04-26T12:21:02.482Z,2.20
2023-04-26T12:23:40.267Z,2.03
2023-04-26T12:26:12.074Z,2.10
2023-04-26T12:28:40.150Z,2.13
2023-04-26T12:31:08.559Z,2.43
2023-04-26T12:33:38.009Z,2.23
2023-04-26T12:36:11.249Z,2.37
2023-04-26T12:38:39.532Z,2.10
2023-04-26T12:41:07.853Z,2.10
2023-04-26T12:43:36.681Z,2.40
2023-04-26T12:46:06.321Z,2.40
2023-04-26T12:48:34.319Z,2.27
2023-04-26T12:51:04.520Z,1.87
2023-04-26T12:53:32.451Z,1.90
2023-04-26T12:56:00.338Z,2.30
2023-04-26T12:58:29.127Z,2.13
2023-04-26T13:00:57.234Z,2.10
2023-04-26T13:03:25.278Z,1.90
2023-04-26T13:05:53.365Z,2.10
2023-04-26T13:08:22.687Z,1.80
2023-04-26T13:10:51.196Z,2.20
2023-04-26T13:13:21.950Z,2.10
2023-04-26T13:15:51.933Z,2.27
2023-04-26T13:18:19.920Z,2.60
2023-04-26T13:20:47.963Z,2.30
2023-04-26T13:23:16.138Z,3.00
2023-04-26T13:25:45.438Z,2.80
2023-04-26T13:28:13.892Z,2.40
2023-04-26T13:30:42.240Z,2.17
2023-04-26T13:33:10.163Z,2.20
2023-04-26T13:35:38.106Z,2.13
2023-04-26T13:38:06.079Z,2.00
2023-04-26T13:40:33.953Z,2.00
2023-04-26T13:43:03.199Z,2.20
2023-04-26T13:45:31.097Z,2.00
2023-04-26T13:47:59.158Z,2.00
2023-04-26T13:50:27.071Z,1.90
2023-04-26T13:52:55.094Z,2.67
2023-04-26T13:55:23.098Z,2.20
2023-04-26T13:57:51.042Z,2.50
2023-04-26T14:00:21.316Z,2.23
2023-04-26T14:02:49.786Z,2.20
2023-04-26T14:05:19.012Z,2.73
2023-04-26T14:07:46.948Z,2.60
2023-04-26T14:10:15.232Z,2.27
2023-04-26T14:12:43.251Z,1.90
2023-04-26T14:15:12.017Z,2.20
2023-04-26T14:17:42.150Z,2.00
2023-04-26T14:20:11.230Z,1.90
2023-04-26T14:22:39.327Z,2.07
2023-04-26T14:25:07.900Z,1.90
2023-04-26T14:27:37.383Z,1.97
2023-04-26T14:30:06.229Z,2.00
2023-04-26T14:32:34.334Z,1.80
2023-04-26T14:35:03.797Z,2.20
2023-04-26T14:37:31.796Z,1.80
2023-04-26T14:40:01.254Z,2.20
2023-04-26T14:42:29.283Z,2.10
2023-04-26T14:44:59.757Z,2.30
2023-04-26T14:47:29.220Z,2.60
2023-04-26T14:49:58.308Z,2.30
2023-04-26T14:52:29.109Z,2.13
2023-04-26T14:54:57.487Z,2.17
2023-04-26T14:57:26.297Z,2.17
2023-04-26T14:59:54.606Z,2.20
2023-04-26T15:02:22.591Z,1.97
2023-04-26T15:04:50.616Z,1.83
2023-04-26T15:07:31.304Z,1.80
2023-04-26T15:10:02.014Z,1.83
2023-04-26T15:12:30.031Z,2.40
2023-04-26T15:14:58.072Z,1.93
2023-04-26T15:17:26.127Z,1.73
2023-04-26T15:19:56.548Z,1.67
2023-04-26T15:22:24.477Z,1.90
2023-04-26T15:24:52.740Z,1.87
2023-04-26T15:27:22.624Z,2.17
2023-04-26T15:29:50.842Z,2.17
2023-04-26T15:32:18.790Z,2.00
2023-04-26T15:34:47.612Z,2.13
2023-04-26T15:37:15.707Z,1.93
2023-04-26T15:39:43.717Z,1.70
2023-04-26T15:42:12.096Z,1.90
2023-04-26T15:44:41.401Z,1.70
2023-04-26T15:47:09.345Z,2.13
2023-04-26T15:49:37.281Z,2.30
2023-04-26T15:52:05.315Z,2.13
2023-04-26T15:54:33.249Z,2.10
2023-04-26T15:57:01.212Z,1.77
2023-04-26T15:59:30.641Z,1.90
2023-04-26T16:02:00.127Z,2.00
2023-04-26T16:04:28.386Z,2.17
2023-04-26T16:06:56.442Z,2.00
2023-04-26T16:09:25.996Z,2.03
2023-04-26T16:11:54.156Z,2.13
2023-04-26T16:14:22.436Z,2.47
2023-04-26T16:16:50.477Z,2.03
2023-04-26T16:19:19.780Z,2.50
2023-04-26T16:21:47.700Z,1.83
2023-04-26T16:24:16.275Z,2.30
2023-04-26T16:26:44.210Z,2.13
2023-04-26T16:29:12.071Z,2.17
2023-04-26T16:31:40.563Z,2.23
2023-04-26T16:34:08.688Z,2.27
2023-04-26T16:36:38.181Z,2.30
2023-04-26T16:39:06.277Z,2.30
2023-04-26T16:41:34.454Z,2.47
2023-04-26T16:44:02.519Z,2.27
2023-04-26T16:46:30.710Z,2.53
2023-04-26T16:48:58.659Z,2.67
2023-04-26T16:51:27.808Z,2.20
2023-04-26T16:53:57.055Z,2.27
2023-04-26T16:56:25.145Z,2.10
2023-04-26T16:58:53.282Z,2.10
2023-04-26T17:01:21.705Z,2.47
2023-04-26T17:03:49.810Z,14.07
2023-04-26T17:06:18.100Z,14.43
2023-04-26T17:08:46.044Z,4.00
2023-04-26T17:11:16.663Z,3.33
2023-04-26T17:13:45.077Z,4.23
2023-04-26T17:16:13.217Z,3.07
2023-04-26T17:18:41.788Z,2.80
2023-04-26T17:21:10.612Z,2.10
2023-04-26T17:23:39.754Z,2.10
2023-04-26T17:26:07.684Z,2.40
2023-04-26T17:28:38.883Z,1.87
2023-04-26T17:31:06.819Z,2.93
2023-04-26T17:33:34.735Z,2.20
2023-04-26T17:36:02.863Z,2.30
2023-04-26T17:38:30.892Z,2.10
2023-04-26T17:40:58.803Z,2.20
2023-04-26T17:43:26.688Z,2.30
2023-04-26T17:45:56.234Z,2.23
2023-04-26T17:48:24.326Z,2.37
2023-04-26T17:50:52.866Z,2.17
2023-04-26T17:53:21.584Z,2.23
2023-04-26T17:55:50.981Z,2.20
2023-04-26T17:58:19.002Z,2.20
2023-04-26T18:00:47.180Z,2.20
2023-04-26T18:03:16.608Z,2.67
2023-04-26T18:05:47.049Z,1.83
2023-04-26T18:08:15.044Z,1.80
2023-04-26T18:10:42.919Z,2.10
2023-04-26T18:13:11.872Z,2.00
2023-04-26T18:15:39.773Z,2.80
2023-04-26T18:18:08.174Z,2.07
2023-04-26T18:20:37.875Z,1.80
2023-04-26T18:23:06.335Z,2.23
2023-04-26T18:25:34.328Z,1.80
2023-04-26T18:28:02.497Z,2.03
2023-04-26T18:30:30.510Z,2.27
2023-04-26T18:32:58.722Z,1.90
2023-04-26T18:35:26.792Z,1.87
2023-04-26T18:37:56.356Z,1.97
2023-04-26T18:40:24.307Z,2.10
2023-04-26T18:42:52.319Z,1.73
2023-04-26T18:45:20.175Z,1.97
2023-04-26T18:47:48.140Z,2.60
2023-04-26T18:50:16.126Z,2.10
2023-04-26T18:52:44.062Z,2.17
2023-04-26T18:55:13.529Z,2.40
2023-04-26T18:57:41.417Z,2.00
2023-04-26T19:00:10.900Z,2.20
2023-04-26T19:02:40.338Z,2.20
2023-04-26T19:05:09.674Z,2.30
2023-04-26T19:07:37.870Z,2.23
2023-04-26T19:10:07.466Z,2.30
2023-04-26T19:12:36.884Z,2.27
2023-04-26T19:15:05.448Z,2.53
2023-04-26T19:17:34.325Z,2.20
2023-04-26T19:20:02.761Z,2.63
2023-04-26T19:22:31.139Z,2.60
2023-04-26T19:25:01.319Z,2.70
2023-04-26T19:27:29.251Z,2.27
2023-04-26T19:29:58.977Z,2.63
2023-04-26T19:32:26.924Z,2.30
2023-04-26T19:34:55.003Z,2.10
2023-04-26T19:37:22.895Z,2.13
2023-04-26T19:39:50.907Z,2.27
2023-04-26T19:42:18.896Z,2.40
2023-04-26T19:44:46.831Z,2.57
2023-04-26T19:47:16.111Z,2.50
2023-04-26T19:49:43.986Z,2.53
2023-04-26T19:52:13.422Z,2.80
2023-04-26T19:54:41.289Z,2.87
2023-04-26T19:57:09.185Z,2.50
2023-04-26T19:59:37.117Z,2.53
2023-04-26T20:02:06.537Z,3.17
2023-04-26T20:04:36.208Z,2.50
2023-04-26T20:07:04.962Z,2.43
2023-04-26T20:09:34.461Z,2.67
2023-04-26T20:12:03.056Z,2.70
2023-04-26T20:14:31.657Z,2.80
2023-04-26T20:17:02.110Z,2.50
2023-04-26T20:19:30.662Z,2.57
2023-04-26T20:21:59.924Z,2.33
2023-04-26T20:24:29.139Z,2.40
2023-04-26T20:26:58.117Z,2.73
2023-04-26T20:29:26.145Z,2.50
2023-04-26T20:31:54.040Z,2.57
2023-04-26T20:34:22.226Z,2.60
2023-04-26T20:36:50.152Z,2.77
2023-04-26T20:39:21.470Z,2.50
2023-04-26T20:41:49.349Z,2.10
2023-04-26T20:44:17.327Z,2.20
2023-04-26T20:46:45.273Z,2.40
2023-04-26T20:49:13.142Z,2.57
2023-04-26T20:51:41.052Z,2.80
2023-04-26T20:54:08.969Z,2.47
2023-04-26T20:56:38.258Z,2.40
2023-04-26T20:59:07.237Z,1.90
2023-04-26T21:01:35.551Z,2.40
2023-04-26T21:04:04.188Z,2.80
2023-04-26T21:06:32.907Z,2.30
2023-04-26T21:09:00.845Z,2.20
2023-04-26T21:11:28.884Z,2.30
2023-04-26T21:13:58.733Z,2.40
2023-04-26T21:16:27.740Z,2.27
2023-04-26T21:18:55.914Z,1.70
2023-04-26T21:21:25.884Z,2.47
2023-04-26T21:23:55.632Z,2.60
2023-04-26T21:26:23.674Z,2.50
2023-04-26T21:28:51.663Z,1.90
2023-04-26T21:31:21.201Z,2.50
2023-04-26T21:33:49.124Z,2.50
2023-04-26T21:36:17.276Z,2.40
2023-04-26T21:38:45.295Z,2.00
2023-04-26T21:41:13.286Z,2.67
2023-04-26T21:43:41.353Z,2.27
2023-04-26T21:46:09.277Z,2.50
2023-04-26T21:48:38.799Z,2.57
2023-04-26T21:51:06.803Z,2.43
2023-04-26T21:53:34.684Z,2.17
2023-04-26T21:56:04.706Z,2.50
2023-04-26T21:58:32.590Z,2.40
2023-04-26T22:01:08.950Z,2.30
2023-04-26T22:03:39.078Z,2.27
2023-04-26T22:06:08.452Z,2.17
2023-04-26T22:08:36.808Z,2.53
2023-04-26T22:11:04.806Z,2.30
2023-04-26T22:13:33.316Z,2.57
2023-04-26T22:16:01.224Z,2.33
2023-04-26T22:18:29.329Z,2.43
2023-04-26T22:20:58.621Z,2.50
2023-04-26T22:23:26.805Z,2.40
2023-04-26T22:25:54.764Z,2.70
2023-04-26T22:28:22.644Z,2.60
2023-04-26T22:30:50.589Z,2.50
2023-04-26T22:33:18.570Z,3.03
2023-04-26T22:35:46.444Z,2.20
2023-04-26T22:38:15.873Z,2.33
2023-04-26T22:40:43.718Z,2.40
2023-04-26T22:43:11.655Z,2.57
2023-04-26T22:45:39.614Z,2.47
2023-04-26T22:48:07.746Z,2.37
2023-04-26T22:50:35.756Z,2.63
2023-04-26T22:53:03.683Z,2.87
2023-04-26T22:55:32.936Z,2.73
2023-04-26T22:58:00.988Z,2.53
2023-04-26T23:00:28.947Z,2.57
2023-04-26T23:02:56.903Z,2.33
2023-04-26T23:05:24.945Z,2.60
2023-04-26T23:07:53.011Z,2.33
2023-04-26T23:10:21.129Z,2.53
2023-04-26T23:12:51.833Z,2.50
2023-04-26T23:15:19.736Z,2.50
2023-04-26T23:17:47.618Z,2.37
2023-04-26T23:20:15.863Z,2.47
2023-04-26T23:22:44.465Z,2.23
2023-04-26T23:25:12.383Z,2.10
2023-04-26T23:27:40.819Z,2.43
2023-04-26T23:30:11.376Z,2.13
2023-04-26T23:32:39.353Z,2.53
2023-04-26T23:35:07.793Z,2.30
2023-04-26T23:37:35.666Z,2.30
2023-04-26T23:40:05.583Z,2.27
2023-04-26T23:42:33.494Z,2.90
2023-04-26T23:45:01.642Z,2.70
2023-04-26T23:47:32.049Z,2.17
2023-04-26T23:50:00.130Z,2.43
2023-04-26T23:52:28.120Z,2.50
2023-04-26T23:54:56.059Z,2.60
2023-04-26T23:57:23.904Z,2.53
2023-04-26T23:59:52.595Z,2.37
